sensor_id;sensor_type;location;lat;lon;timestamp;pressure;altitude;pressure_sealevel;temperature;humidity
23363;BME280;11853;48.080;11.960;2022-11-23T00:00:28;93562.88;;;5.90;100.00
23363;BME280;11853;48.080;11.960;2022-11-23T00:02:58;93560.78;;;5.94;100.00
23363;BME280;11853;48.080;11.960;2022-11-23T00:05:25;93551.06;;;5.94;100.00
23363;BME280;11853;48.080;11.960;2022-11-23T00:07:51;93549.78;;;5.98;100.00
23363;BME280;11853;48.080;11.960;2022-11-23T00:10:17;93564.59;;;5.99;100.00
23363;BME280;11853;48.080;11.960;2022-11-23T00:12:43;93563.25;;;5.95;100.00
23363;BME280;11853;48.080;11.960;2022-11-23T00:15:12;93562.94;;;5.98;100.00
23363;BME280;11853;48.080;11.960;2022-11-23T00:17:37;93563.91;;;5.97;100.00
23363;BME280;11853;48.080;11.960;2022-11-23T00:20:06;93561.28;;;5.97;100.00
23363;BME280;11853;48.080;11.960;2022-11-23T00:22:33;93567.34;;;5.98;100.00
23363;BME280;11853;48.080;11.960;2022-11-23T00:25:00;93559.09;;;5.93;100.00
23363;BME280;11853;48.080;11.960;2022-11-23T00:27:25;93565.03;;;5.95;100.00
23363;BME280;11853;48.080;11.960;2022-11-23T00:29:51;93565.03;;;5.95;100.00
23363;BME280;11853;48.080;11.960;2022-11-23T00:32:17;93568.53;;;5.95;100.00
23363;BME280;11853;48.080;11.960;2022-11-23T00:34:42;93564.38;;;5.93;100.00
23363;BME280;11853;48.080;11.960;2022-11-23T00:37:08;93567.84;;;5.93;100.00
23363;BME280;11853;48.080;11.960;2022-11-23T00:39:34;93565.91;;;5.95;100.00
23363;BME280;11853;48.080;11.960;2022-11-23T00:41:59;93565.72;;;5.97;100.00
23363;BME280;11853;48.080;11.960;2022-11-23T00:44:25;93564.91;;;5.96;100.00
23363;BME280;11853;48.080;11.960;2022-11-23T00:46:51;93569.50;;;5.94;100.00
23363;BME280;11853;48.080;11.960;2022-11-23T00:49:17;93572.13;;;5.94;100.00
23363;BME280;11853;48.080;11.960;2022-11-23T00:51:42;93578.06;;;5.96;100.00
23363;BME280;11853;48.080;11.960;2022-11-23T00:54:08;93579.38;;;6.00;100.00
23363;BME280;11853;48.080;11.960;2022-11-23T00:56:34;93581.06;;;6.01;100.00
23363;BME280;11853;48.080;11.960;2022-11-23T00:59:01;93580.38;;;5.99;100.00
23363;BME280;11853;48.080;11.960;2022-11-23T01:01:30;93576.25;;;5.97;100.00
23363;BME280;11853;48.080;11.960;2022-11-23T01:03:59;93576.25;;;5.97;100.00
23363;BME280;11853;48.080;11.960;2022-11-23T01:06:28;93571.81;;;5.97;100.00
23363;BME280;11853;48.080;11.960;2022-11-23T01:09:07;93580.69;;;5.96;100.00
23363;BME280;11853;48.080;11.960;2022-11-23T01:11:33;93574.13;;;6.00;100.00
23363;BME280;11853;48.080;11.960;2022-11-23T01:13:59;93577.25;;;5.96;100.00
23363;BME280;11853;48.080;11.960;2022-11-23T01:16:31;93582.66;;;5.94;100.00
23363;BME280;11853;48.080;11.960;2022-11-23T01:18:58;93588.91;;;5.93;100.00
23363;BME280;11853;48.080;11.960;2022-11-23T01:21:25;93582.66;;;5.94;100.00
23363;BME280;11853;48.080;11.960;2022-11-23T01:23:51;93576.41;;;5.95;100.00
23363;BME280;11853;48.080;11.960;2022-11-23T01:26:17;93575.44;;;5.96;100.00
23363;BME280;11853;48.080;11.960;2022-11-23T01:28:43;93582.66;;;5.94;100.00
23363;BME280;11853;48.080;11.960;2022-11-23T01:31:15;93577.06;;;5.97;100.00
23363;BME280;11853;48.080;11.960;2022-11-23T01:33:41;93577.66;;;5.91;100.00
23363;BME280;11853;48.080;11.960;2022-11-23T01:36:11;93580.00;;;5.94;100.00
23363;BME280;11853;48.080;11.960;2022-11-23T01:38:38;93587.59;;;5.97;100.00
23363;BME280;11853;48.080;11.960;2022-11-23T01:41:05;93581.69;;;5.95;100.00
23363;BME280;11853;48.080;11.960;2022-11-23T01:43:31;93587.09;;;5.94;100.00
23363;BME280;11853;48.080;11.960;2022-11-23T01:45:59;93585.41;;;5.93;100.00
23363;BME280;11853;48.080;11.960;2022-11-23T01:51:05;93578.19;;;5.95;100.00
23363;BME280;11853;48.080;11.960;2022-11-23T01:53:34;93580.16;;;5.93;100.00
23363;BME280;11853;48.080;11.960;2022-11-23T01:56:03;93580.53;;;5.98;100.00
23363;BME280;11853;48.080;11.960;2022-11-23T01:58:33;93584.00;;;5.98;100.00
23363;BME280;11853;48.080;11.960;2022-11-23T02:01:01;93589.28;;;5.98;100.00
23363;BME280;11853;48.080;11.960;2022-11-23T02:03:28;93596.38;;;6.06;100.00
23363;BME280;11853;48.080;11.960;2022-11-23T02:06:00;93590.63;;;6.11;100.00
23363;BME280;11853;48.080;11.960;2022-11-23T02:08:27;93597.19;;;6.06;100.00
23363;BME280;11853;48.080;11.960;2022-11-23T02:10:55;93600.00;;;6.05;100.00
23363;BME280;11853;48.080;11.960;2022-11-23T02:13:22;93597.19;;;6.06;100.00
23363;BME280;11853;48.080;11.960;2022-11-23T02:15:50;93585.69;;;6.07;100.00
23363;BME280;11853;48.080;11.960;2022-11-23T02:18:20;93591.91;;;6.06;100.00
23363;BME280;11853;48.080;11.960;2022-11-23T02:20:48;93588.31;;;6.07;100.00
23363;BME280;11853;48.080;11.960;2022-11-23T02:26:14;93593.41;;;6.09;100.00
23363;BME280;11853;48.080;11.960;2022-11-23T02:31:21;93590.28;;;6.05;100.00
23363;BME280;11853;48.080;11.960;2022-11-23T02:33:47;93591.09;;;6.06;100.00
23363;BME280;11853;48.080;11.960;2022-11-23T02:36:35;93595.53;;;6.05;100.00
23363;BME280;11853;48.080;11.960;2022-11-23T02:39:07;93592.78;;;6.07;100.00
23363;BME280;11853;48.080;11.960;2022-11-23T02:41:35;93598.84;;;6.07;100.00
23363;BME280;11853;48.080;11.960;2022-11-23T02:47:23;93595.53;;;6.05;100.00
23363;BME280;11853;48.080;11.960;2022-11-23T02:49:48;93602.75;;;6.03;100.00
23363;BME280;11853;48.080;11.960;2022-11-23T02:52:16;93597.19;;;6.06;100.00
23363;BME280;11853;48.080;11.960;2022-11-23T02:54:42;93598.84;;;6.07;100.00
23363;BME280;11853;48.080;11.960;2022-11-23T02:57:08;93593.91;;;6.04;100.00
23363;BME280;11853;48.080;11.960;2022-11-23T02:59:34;93597.50;;;6.03;100.00
23363;BME280;11853;48.080;11.960;2022-11-23T03:02:02;93595.84;;;6.02;100.00
23363;BME280;11853;48.080;11.960;2022-11-23T03:04:27;93595.03;;;6.02;100.00
23363;BME280;11853;48.080;11.960;2022-11-23T03:06:54;93591.59;;;6.01;100.00
23363;BME280;11853;48.080;11.960;2022-11-23T03:09:19;93594.34;;;6.00;100.00
23363;BME280;11853;48.080;11.960;2022-11-23T03:11:45;93597.81;;;6.00;100.00
23363;BME280;11853;48.080;11.960;2022-11-23T03:14:11;93597.16;;;5.98;100.00
23363;BME280;11853;48.080;11.960;2022-11-23T03:16:36;93598.13;;;5.97;100.00
23363;BME280;11853;48.080;11.960;2022-11-23T03:19:02;93603.06;;;6.00;100.00
23363;BME280;11853;48.080;11.960;2022-11-23T03:21:28;93597.81;;;6.00;100.00
23363;BME280;11853;48.080;11.960;2022-11-23T03:23:54;93607.69;;;5.98;100.00
23363;BME280;11853;48.080;11.960;2022-11-23T03:26:20;93605.88;;;5.99;100.00
23363;BME280;11853;48.080;11.960;2022-11-23T03:28:46;93603.91;;;6.01;100.00
23363;BME280;11853;48.080;11.960;2022-11-23T03:31:11;93602.75;;;6.03;100.00
23363;BME280;11853;48.080;11.960;2022-11-23T03:33:37;93603.75;;;6.02;100.00
23363;BME280;11853;48.080;11.960;2022-11-23T03:36:03;93608.34;;;6.00;100.00
23363;BME280;11853;48.080;11.960;2022-11-23T03:38:29;93605.06;;;5.98;100.00
23363;BME280;11853;48.080;11.960;2022-11-23T03:40:54;93609.47;;;5.98;100.00
23363;BME280;11853;48.080;11.960;2022-11-23T03:43:31;93604.38;;;5.96;100.00
23363;BME280;11853;48.080;11.960;2022-11-23T03:45:57;93602.88;;;5.94;100.00
23363;BME280;11853;48.080;11.960;2022-11-23T03:48:23;93609.97;;;5.93;100.00
23363;BME280;11853;48.080;11.960;2022-11-23T03:50:48;93605.38;;;5.95;100.00
23363;BME280;11853;48.080;11.960;2022-11-23T03:53:14;93610.38;;;5.88;100.00
23363;BME280;11853;48.080;11.960;2022-11-23T03:55:40;93595.34;;;5.99;100.00
23363;BME280;11853;48.080;11.960;2022-11-23T03:58:05;93600.75;;;5.97;100.00
23363;BME280;11853;48.080;11.960;2022-11-23T04:00:31;93597.16;;;5.98;100.00
23363;BME280;11853;48.080;11.960;2022-11-23T04:02:57;93591.00;;;5.90;100.00
23363;BME280;11853;48.080;11.960;2022-11-23T04:05:23;93591.44;;;5.85;100.00
23363;BME280;11853;48.080;11.960;2022-11-23T04:07:49;93587.00;;;5.85;100.00
23363;BME280;11853;48.080;11.960;2022-11-23T04:10:16;93600.47;;;5.82;100.00
23363;BME280;11853;48.080;11.960;2022-11-23T04:12:42;93596.34;;;5.80;100.00
23363;BME280;11853;48.080;11.960;2022-11-23T04:15:08;93595.22;;;5.82;100.00
23363;BME280;11853;48.080;11.960;2022-11-23T04:17:34;93588.81;;;5.85;100.00
23363;BME280;11853;48.080;11.960;2022-11-23T04:20:00;93601.00;;;5.86;100.00
23363;BME280;11853;48.080;11.960;2022-11-23T04:22:26;93596.34;;;5.80;100.00
23363;BME280;11853;48.080;11.960;2022-11-23T04:24:51;93595.38;;;5.81;100.00
23363;BME280;11853;48.080;11.960;2022-11-23T04:27:17;93598.31;;;5.78;100.00
23363;BME280;11853;48.080;11.960;2022-11-23T04:29:43;93594.78;;;5.69;100.00
23363;BME280;11853;48.080;11.960;2022-11-23T04:32:08;93598.63;;;5.75;100.00
23363;BME280;11853;48.080;11.960;2022-11-23T04:34:35;93590.00;;;5.64;100.00
23363;BME280;11853;48.080;11.960;2022-11-23T04:37:00;93590.97;;;5.63;100.00
23363;BME280;11853;48.080;11.960;2022-11-23T04:39:26;93593.09;;;5.60;100.00
23363;BME280;11853;48.080;11.960;2022-11-23T04:41:52;93592.78;;;5.63;100.00
23363;BME280;11853;48.080;11.960;2022-11-23T04:47:39;93589.91;;;5.74;100.00
23363;BME280;11853;48.080;11.960;2022-11-23T04:50:04;93590.69;;;5.67;100.00
23363;BME280;11853;48.080;11.960;2022-11-23T04:52:30;93586.56;;;5.64;100.00
23363;BME280;11853;48.080;11.960;2022-11-23T04:58:17;93585.94;;;5.70;100.00
23363;BME280;11853;48.080;11.960;2022-11-23T05:00:43;93591.97;;;5.62;100.00
23363;BME280;11853;48.080;11.960;2022-11-23T05:03:08;93589.13;;;5.56;100.00
23363;BME280;11853;48.080;11.960;2022-11-23T05:05:37;93591.91;;;5.54;100.00
23363;BME280;11853;48.080;11.960;2022-11-23T05:08:03;93593.09;;;5.60;100.00
23363;BME280;11853;48.080;11.960;2022-11-23T05:10:29;93592.72;;;5.55;100.00
23363;BME280;11853;48.080;11.960;2022-11-23T05:12:54;93595.53;;;5.53;100.00
23363;BME280;11853;48.080;11.960;2022-11-23T05:15:20;93601.78;;;5.52;100.00
23363;BME280;11853;48.080;11.960;2022-11-23T05:17:46;93593.56;;;5.55;100.00
23363;BME280;11853;48.080;11.960;2022-11-23T05:20:12;93592.41;;;5.58;100.00
23363;BME280;11853;48.080;11.960;2022-11-23T05:22:37;93596.91;;;5.65;100.00
23363;BME280;11853;48.080;11.960;2022-11-23T05:25:04;93593.78;;;5.62;100.00
23363;BME280;11853;48.080;11.960;2022-11-23T05:27:30;93597.78;;;5.48;100.00
23363;BME280;11853;48.080;11.960;2022-11-23T05:29:55;93592.84;;;5.45;100.00
23363;BME280;11853;48.080;11.960;2022-11-23T05:32:21;93588.09;;;5.49;100.00
23363;BME280;11853;48.080;11.960;2022-11-23T05:34:47;93583.91;;;5.38;100.00
23363;BME280;11853;48.080;11.960;2022-11-23T05:37:12;93588.31;;;5.37;100.00
23363;BME280;11853;48.080;11.960;2022-11-23T05:39:38;93594.78;;;5.43;100.00
23363;BME280;11853;48.080;11.960;2022-11-23T05:42:04;93588.19;;;5.39;100.00
23363;BME280;11853;48.080;11.960;2022-11-23T05:44:30;93590.13;;;5.37;100.00
23363;BME280;11853;48.080;11.960;2022-11-23T05:46:56;93578.41;;;5.31;100.00
23363;BME280;11853;48.080;11.960;2022-11-23T05:49:21;93590.75;;;5.31;100.00
23363;BME280;11853;48.080;11.960;2022-11-23T05:51:48;93586.31;;;5.31;100.00
23363;BME280;11853;48.080;11.960;2022-11-23T05:54:14;93584.66;;;5.30;100.00
23363;BME280;11853;48.080;11.960;2022-11-23T05:56:39;93586.00;;;5.34;100.00
23363;BME280;11853;48.080;11.960;2022-11-23T05:59:05;93588.34;;;5.19;100.00
23363;BME280;11853;48.080;11.960;2022-11-23T06:01:32;93585.66;;;5.11;100.00
23363;BME280;11853;48.080;11.960;2022-11-23T06:03:59;93588.97;;;5.13;100.00
23363;BME280;11853;48.080;11.960;2022-11-23T06:06:24;93589.47;;;5.17;100.00
23363;BME280;11853;48.080;11.960;2022-11-23T06:08:50;93596.09;;;5.21;100.00
23363;BME280;11853;48.080;11.960;2022-11-23T06:11:16;93597.38;;;5.17;100.00
23363;BME280;11853;48.080;11.960;2022-11-23T06:13:41;93591.28;;;5.16;100.00
23363;BME280;11853;48.080;11.960;2022-11-23T06:16:07;93594.06;;;5.15;100.00
23363;BME280;11853;48.080;11.960;2022-11-23T06:18:33;93599.56;;;5.22;100.00
23363;BME280;11853;48.080;11.960;2022-11-23T06:20:59;93595.63;;;5.26;100.00
23363;BME280;11853;48.080;11.960;2022-11-23T06:23:26;93594.81;;;5.25;100.00
23363;BME280;11853;48.080;11.960;2022-11-23T06:25:52;93597.00;;;5.30;100.00
23363;BME280;11853;48.080;11.960;2022-11-23T06:28:17;93592.03;;;5.27;100.00
23363;BME280;11853;48.080;11.960;2022-11-23T06:30:43;93590.69;;;5.23;100.00
23363;BME280;11853;48.080;11.960;2022-11-23T06:33:09;93589.03;;;5.22;100.00
23363;BME280;11853;48.080;11.960;2022-11-23T06:35:34;93593.31;;;5.23;100.00
23363;BME280;11853;48.080;11.960;2022-11-23T06:38:00;93589.41;;;5.27;100.00
23363;BME280;11853;48.080;11.960;2022-11-23T06:40:26;93591.19;;;5.26;100.00
23363;BME280;11853;48.080;11.960;2022-11-23T06:43:01;93596.00;;;5.31;100.00
23363;BME280;11853;48.080;11.960;2022-11-23T06:45:27;93593.00;;;5.26;100.00
23363;BME280;11853;48.080;11.960;2022-11-23T06:47:55;93601.38;;;5.21;100.00
23363;BME280;11853;48.080;11.960;2022-11-23T06:50:21;93601.38;;;5.21;100.00
23363;BME280;11853;48.080;11.960;2022-11-23T06:52:47;93607.56;;;5.20;100.00
23363;BME280;11853;48.080;11.960;2022-11-23T06:55:12;93605.78;;;5.20;100.00
23363;BME280;11853;48.080;11.960;2022-11-23T06:57:38;93605.78;;;5.20;100.00
23363;BME280;11853;48.080;11.960;2022-11-23T07:00:04;93604.94;;;5.20;100.00
23363;BME280;11853;48.080;11.960;2022-11-23T07:02:30;93610.44;;;5.27;100.00
23363;BME280;11853;48.080;11.960;2022-11-23T07:04:56;93609.59;;;5.26;100.00
23363;BME280;11853;48.080;11.960;2022-11-23T07:07:21;93617.19;;;5.29;100.00
23363;BME280;11853;48.080;11.960;2022-11-23T07:09:47;93614.78;;;5.36;100.00
23363;BME280;11853;48.080;11.960;2022-11-23T07:12:13;93620.47;;;5.49;100.00
23363;BME280;11853;48.080;11.960;2022-11-23T07:14:39;93625.34;;;5.62;100.00
23363;BME280;11853;48.080;11.960;2022-11-23T07:17:04;93621.78;;;5.71;100.00
23363;BME280;11853;48.080;11.960;2022-11-23T07:19:30;93624.94;;;5.75;100.00
23363;BME280;11853;48.080;11.960;2022-11-23T07:21:56;93622.66;;;5.80;100.00
23363;BME280;11853;48.080;11.960;2022-11-23T07:24:21;93629.31;;;5.92;100.00
23363;BME280;11853;48.080;11.960;2022-11-23T07:26:47;93621.88;;;6.05;100.00
23363;BME280;11853;48.080;11.960;2022-11-23T07:29:13;93632.50;;;6.22;100.00
23363;BME280;11853;48.080;11.960;2022-11-23T07:31:38;93623.44;;;6.59;100.00
23363;BME280;11853;48.080;11.960;2022-11-23T07:34:04;93626.66;;;6.95;100.00
23363;BME280;11853;48.080;11.960;2022-11-23T07:36:30;93629.41;;;7.44;100.00
23363;BME280;11853;48.080;11.960;2022-11-23T07:38:56;93626.88;;;7.92;100.00
23363;BME280;11853;48.080;11.960;2022-11-23T07:41:21;93631.13;;;8.17;99.01
23363;BME280;11853;48.080;11.960;2022-11-23T07:43:47;93635.06;;;8.29;99.12
23363;BME280;11853;48.080;11.960;2022-11-23T07:46:13;93640.34;;;8.29;98.11
23363;BME280;11853;48.080;11.960;2022-11-23T07:48:38;93640.06;;;8.16;98.02
23363;BME280;11853;48.080;11.960;2022-11-23T07:51:04;93636.78;;;7.98;100.00
23363;BME280;11853;48.080;11.960;2022-11-23T07:53:30;93648.84;;;7.84;100.00
23363;BME280;11853;48.080;11.960;2022-11-23T07:55:56;93643.56;;;7.67;100.00
23363;BME280;11853;48.080;11.960;2022-11-23T07:58:25;93639.94;;;7.60;99.29
23363;BME280;11853;48.080;11.960;2022-11-23T08:00:51;93645.88;;;7.71;99.30
23363;BME280;11853;48.080;11.960;2022-11-23T08:03:16;93640.28;;;7.82;99.15
23363;BME280;11853;48.080;11.960;2022-11-23T08:05:42;93635.97;;;7.89;99.95
23363;BME280;11853;48.080;11.960;2022-11-23T08:08:08;93638.09;;;8.02;97.26
23363;BME280;11853;48.080;11.960;2022-11-23T08:10:34;93636.78;;;8.06;100.00
23363;BME280;11853;48.080;11.960;2022-11-23T08:13:03;93638.19;;;8.41;100.00
23363;BME280;11853;48.080;11.960;2022-11-23T08:15:29;93637.47;;;9.03;100.00
23363;BME280;11853;48.080;11.960;2022-11-23T08:17:56;93639.47;;;9.24;95.16
23363;BME280;11853;48.080;11.960;2022-11-23T08:20:22;93643.91;;;9.32;97.40
23363;BME280;11853;48.080;11.960;2022-11-23T08:22:48;93643.50;;;9.43;94.39
23363;BME280;11853;48.080;11.960;2022-11-23T08:25:13;93647.75;;;9.52;95.46
23363;BME280;11853;48.080;11.960;2022-11-23T08:27:39;93643.41;;;9.36;94.73
23363;BME280;11853;48.080;11.960;2022-11-23T08:30:06;93643.56;;;9.35;95.11
23363;BME280;11853;48.080;11.960;2022-11-23T08:32:31;93645.69;;;9.62;90.29
23363;BME280;11853;48.080;11.960;2022-11-23T08:34:57;93648.75;;;9.51;90.69
23363;BME280;11853;48.080;11.960;2022-11-23T08:37:23;93651.38;;;9.28;91.14
23363;BME280;11853;48.080;11.960;2022-11-23T08:39:48;93660.53;;;9.17;91.50
23363;BME280;11853;48.080;11.960;2022-11-23T08:42:14;93648.94;;;9.18;95.32
23363;BME280;11853;48.080;11.960;2022-11-23T08:44:40;93650.22;;;9.31;89.82
23363;BME280;11853;48.080;11.960;2022-11-23T08:47:06;93645.13;;;9.21;90.52
23363;BME280;11853;48.080;11.960;2022-11-23T08:49:31;93652.44;;;9.19;92.55
23363;BME280;11853;48.080;11.960;2022-11-23T08:51:57;93649.41;;;9.30;94.11
23363;BME280;11853;48.080;11.960;2022-11-23T08:54:24;93653.16;;;9.36;94.76
23363;BME280;11853;48.080;11.960;2022-11-23T08:56:50;93659.38;;;9.43;93.13
23363;BME280;11853;48.080;11.960;2022-11-23T08:59:16;93661.94;;;9.59;94.27
23363;BME280;11853;48.080;11.960;2022-11-23T09:01:43;93664.94;;;9.79;92.96
23363;BME280;11853;48.080;11.960;2022-11-23T09:04:09;93661.03;;;9.90;88.67
23363;BME280;11853;48.080;11.960;2022-11-23T09:06:35;93668.19;;;10.04;89.13
23363;BME280;11853;48.080;11.960;2022-11-23T09:09:02;93660.69;;;9.93;90.34
23363;BME280;11853;48.080;11.960;2022-11-23T09:11:27;93662.50;;;9.92;92.02
23363;BME280;11853;48.080;11.960;2022-11-23T09:13:53;93663.59;;;9.98;90.69
23363;BME280;11853;48.080;11.960;2022-11-23T09:16:19;93659.38;;;9.89;87.55
23363;BME280;11853;48.080;11.960;2022-11-23T09:18:45;93657.75;;;9.42;88.81
23363;BME280;11853;48.080;11.960;2022-11-23T09:21:13;93660.28;;;9.58;88.45
23363;BME280;11853;48.080;11.960;2022-11-23T09:23:39;93660.75;;;9.62;90.19
23363;BME280;11853;48.080;11.960;2022-11-23T09:26:05;93656.81;;;9.58;90.47
23363;BME280;11853;48.080;11.960;2022-11-23T09:28:31;93648.84;;;9.35;94.06
23363;BME280;11853;48.080;11.960;2022-11-23T09:30:57;93650.41;;;9.21;94.37
23363;BME280;11853;48.080;11.960;2022-11-23T09:33:26;93647.91;;;9.28;92.92
23363;BME280;11853;48.080;11.960;2022-11-23T09:35:59;93657.22;;;9.15;92.05
23363;BME280;11853;48.080;11.960;2022-11-23T09:38:26;93642.00;;;9.17;92.63
23363;BME280;11853;48.080;11.960;2022-11-23T09:41:04;93638.66;;;9.23;92.12
23363;BME280;11853;48.080;11.960;2022-11-23T09:43:40;93638.09;;;9.59;93.08
23363;BME280;11853;48.080;11.960;2022-11-23T09:46:40;93638.31;;;9.73;88.45
23363;BME280;11853;48.080;11.960;2022-11-23T09:49:18;93641.13;;;9.56;92.31
23363;BME280;11853;48.080;11.960;2022-11-23T09:51:47;93639.09;;;9.58;91.03
23363;BME280;11853;48.080;11.960;2022-11-23T09:54:22;93636.22;;;9.45;91.81
23363;BME280;11853;48.080;11.960;2022-11-23T09:56:52;93636.22;;;9.45;91.53
23363;BME280;11853;48.080;11.960;2022-11-23T09:59:41;93642.75;;;9.34;92.43
23363;BME280;11853;48.080;11.960;2022-11-23T10:02:28;93642.84;;;9.41;90.47
23363;BME280;11853;48.080;11.960;2022-11-23T10:04:57;93639.28;;;9.34;93.16
23363;BME280;11853;48.080;11.960;2022-11-23T10:07:53;93638.91;;;9.37;93.42
23363;BME280;11853;48.080;11.960;2022-11-23T10:10:42;93642.69;;;9.42;91.01
23363;BME280;11853;48.080;11.960;2022-11-23T10:13:22;93631.41;;;9.48;92.30
23363;BME280;11853;48.080;11.960;2022-11-23T10:18:45;93627.81;;;9.64;91.74
23363;BME280;11853;48.080;11.960;2022-11-23T10:21:26;93630.56;;;9.71;93.02
23363;BME280;11853;48.080;11.960;2022-11-23T10:24:09;93633.38;;;9.69;93.51
23363;BME280;11853;48.080;11.960;2022-11-23T10:26:40;93633.31;;;9.78;89.20
23363;BME280;11853;48.080;11.960;2022-11-23T10:31:54;93630.53;;;9.56;92.44
23363;BME280;11853;48.080;11.960;2022-11-23T10:35:40;93631.38;;;9.25;93.29
23363;BME280;11853;48.080;11.960;2022-11-23T10:37:38;93618.31;;;9.24;94.37
23363;BME280;11853;48.080;11.960;2022-11-23T10:40:25;93609.91;;;9.20;92.91
23363;BME280;11853;48.080;11.960;2022-11-23T10:42:58;93612.44;;;9.37;92.09
23363;BME280;11853;48.080;11.960;2022-11-23T10:45:27;93600.34;;;9.42;91.63
23363;BME280;11853;48.080;11.960;2022-11-23T10:47:57;93612.56;;;9.43;91.83
23363;BME280;11853;48.080;11.960;2022-11-23T10:50:30;93605.84;;;9.33;91.55
23363;BME280;11853;48.080;11.960;2022-11-23T10:53:18;93606.00;;;9.39;92.82
23363;BME280;11853;48.080;11.960;2022-11-23T10:55:51;93603.78;;;9.66;95.35
23363;BME280;11853;48.080;11.960;2022-11-23T11:01:00;93608.41;;;10.25;87.20
23363;BME280;11853;48.080;11.960;2022-11-23T11:03:30;93606.56;;;10.70;89.30
23363;BME280;11853;48.080;11.960;2022-11-23T11:05:57;93591.63;;;11.35;86.13
23363;BME280;11853;48.080;11.960;2022-11-23T11:08:32;93598.06;;;11.68;85.92
23363;BME280;11853;48.080;11.960;2022-11-23T11:11:44;93594.31;;;12.06;80.86
23363;BME280;11853;48.080;11.960;2022-11-23T11:16:51;93589.00;;;12.34;80.46
23363;BME280;11853;48.080;11.960;2022-11-23T11:19:26;93585.59;;;12.47;81.56
23363;BME280;11853;48.080;11.960;2022-11-23T11:21:52;93594.78;;;12.16;74.81
23363;BME280;11853;48.080;11.960;2022-11-23T11:24:23;93582.88;;;12.05;76.81
23363;BME280;11853;48.080;11.960;2022-11-23T11:26:57;93584.03;;;11.75;77.68
23363;BME280;11853;48.080;11.960;2022-11-23T11:29:31;93588.28;;;11.90;76.30
23363;BME280;11853;48.080;11.960;2022-11-23T11:34:48;93582.06;;;12.05;74.53
23363;BME280;11853;48.080;11.960;2022-11-23T11:37:34;93581.81;;;12.00;76.81
23363;BME280;11853;48.080;11.960;2022-11-23T11:40:11;93587.69;;;11.73;78.36
23363;BME280;11853;48.080;11.960;2022-11-23T11:42:56;93582.88;;;12.05;78.11
23363;BME280;11853;48.080;11.960;2022-11-23T11:45:24;93586.69;;;12.24;74.21
23363;BME280;11853;48.080;11.960;2022-11-23T11:50:23;93586.28;;;12.27;76.22
23363;BME280;11853;48.080;11.960;2022-11-23T11:52:55;93577.59;;;12.12;76.64
23363;BME280;11853;48.080;11.960;2022-11-23T11:55:27;93577.28;;;11.93;74.64
23363;BME280;11853;48.080;11.960;2022-11-23T12:00:27;93569.91;;;11.74;75.49
23363;BME280;11853;48.080;11.960;2022-11-23T12:03:15;93575.91;;;11.83;74.06
23363;BME280;11853;48.080;11.960;2022-11-23T12:05:48;93571.97;;;11.79;73.12
23363;BME280;11853;48.080;11.960;2022-11-23T12:08:29;93558.88;;;11.70;74.55
23363;BME280;11853;48.080;11.960;2022-11-23T12:10:59;93563.22;;;11.57;71.20
23363;BME280;11853;48.080;11.960;2022-11-23T12:13:34;93559.22;;;11.24;72.74
23363;BME280;11853;48.080;11.960;2022-11-23T12:38:37;93551.09;;;10.90;73.84
23363;BME280;11853;48.080;11.960;2022-11-23T12:46:30;93544.47;;;10.79;75.95
23363;BME280;11853;48.080;11.960;2022-11-23T12:49:35;93552.28;;;10.87;73.57
23363;BME280;11853;48.080;11.960;2022-11-23T12:52:14;93543.19;;;10.75;75.55
23363;BME280;11853;48.080;11.960;2022-11-23T12:57:45;93549.72;;;10.43;77.68
23363;BME280;11853;48.080;11.960;2022-11-23T13:00:22;93546.13;;;10.21;79.69
23363;BME280;11853;48.080;11.960;2022-11-23T13:05:26;93543.13;;;10.24;79.73
23363;BME280;11853;48.080;11.960;2022-11-23T13:10:56;93538.19;;;10.21;81.86
23363;BME280;11853;48.080;11.960;2022-11-23T13:21:42;93535.88;;;9.73;82.19
23363;BME280;11853;48.080;11.960;2022-11-23T13:24:28;93541.72;;;9.68;82.46
23363;BME280;11853;48.080;11.960;2022-11-23T13:32:43;93543.22;;;9.48;84.32
23363;BME280;11853;48.080;11.960;2022-11-23T13:40:32;93547.31;;;9.36;82.07
23363;BME280;11853;48.080;11.960;2022-11-23T13:43:29;93543.69;;;9.29;84.45
23363;BME280;11853;48.080;11.960;2022-11-23T13:46:19;93550.63;;;9.30;85.47
23363;BME280;11853;48.080;11.960;2022-11-23T13:48:52;93545.63;;;9.35;85.22
23363;BME280;11853;48.080;11.960;2022-11-23T13:51:27;93542.94;;;9.20;84.32
23363;BME280;11853;48.080;11.960;2022-11-23T13:54:01;93545.84;;;9.10;84.89
23363;BME280;11853;48.080;11.960;2022-11-23T13:56:40;93536.00;;;9.19;84.84
23363;BME280;11853;48.080;11.960;2022-11-23T14:04:44;93544.75;;;8.96;86.17
23363;BME280;11853;48.080;11.960;2022-11-23T14:07:18;93541.41;;;9.02;86.53
23363;BME280;11853;48.080;11.960;2022-11-23T14:10:00;93547.91;;;8.92;86.14
23363;BME280;11853;48.080;11.960;2022-11-23T14:12:48;93541.66;;;8.93;86.96
23363;BME280;11853;48.080;11.960;2022-11-23T14:15:20;93549.50;;;9.01;86.49
23363;BME280;11853;48.080;11.960;2022-11-23T14:26:28;93538.13;;;8.69;87.75
23363;BME280;11853;48.080;11.960;2022-11-23T14:32:16;93527.34;;;8.79;86.07
23363;BME280;11853;48.080;11.960;2022-11-23T14:43:22;93530.56;;;8.66;87.37
23363;BME280;11853;48.080;11.960;2022-11-23T14:45:48;93517.38;;;8.58;89.52
23363;BME280;11853;48.080;11.960;2022-11-23T14:48:28;93524.69;;;8.56;90.91
23363;BME280;11853;48.080;11.960;2022-11-23T14:53:27;93531.53;;;8.34;92.48
23363;BME280;11853;48.080;11.960;2022-11-23T14:55:55;93532.19;;;8.36;93.48
23363;BME280;11853;48.080;11.960;2022-11-23T14:58:22;93533.38;;;8.25;93.77
23363;BME280;11853;48.080;11.960;2022-11-23T15:00:51;93527.81;;;8.12;94.85
23363;BME280;11853;48.080;11.960;2022-11-23T15:03:19;93534.31;;;8.01;94.58